KBIH/BIH METAR and TAF weather

Enter ICAO airport designator
Station Type Date Time Source
KBIH METAR 2021/07/26 16:56 UTC NOAA

KBIH 261656Z AUTO 00000KT 10SM CLR 27/10 A3006 RMK AO2 SLP121 T02720100


Station Type Date Time Source
KBIH Decoded METAR 2021/07/26 16:56 UTC NOAA

BISHOP AIRPORT, CA, United States (KBIH) 37-22N 118-22W 1253M
Jul 26, 2021 - 12:56 PM EDT / 2021.07.26 1656 UTC
Wind: Calm:0
Visibility: 10 mile(s):0
Sky conditions: clear
Temperature: 81.0 F (27.2 C)
Dew Point: 50.0 F (10.0 C)
Relative Humidity: 34%
Pressure (altimeter): 30.06 in. Hg (1017 hPa)
ob: KBIH 261656Z AUTO 00000KT 10SM CLR 27/10 A3006 RMK AO2 SLP121 T02720100
cycle: 17

Station Type Date Time Source
KBIH TAF 2021/07/26 18:22 UTC NOAA

TAF KBIH 261720Z 2618/2718 15008KT P6SM SCT140
FM262100 16010G18KT P6SM VCTS SCT060 BKN100CB
TEMPO 2623/2703 16020G35KT TSRA BKN050CB
FM270800 17008KT P6SM BKN050
FM271400 17012G20KT P6SM BKN050

Example: see airport list